Time;durP1;ratioP1;P1;durP2;ratioP2;P2;SDS_P1;SDS_P2;PMS_P1;PMS_P2;Temp;Humidity;BMP_temperature;BMP_pressure;BME280_temperature;BME280_humidity;BME280_pressure;Samples;Min_cycle;Max_cycle;Signal;HPM_P1;HPM_P2
2024/04/04 00:00:52;;;;;;;7.88;3.25;;;;;;;;;;5044504;28;20040;-73
2024/04/04 00:03:21;;;;;;;8.23;3.40;;;;;;;;;;5044456;28;20052;-73
2024/04/04 00:05:50;;;;;;;9.65;3.28;;;;;;;;;;5043977;28;20072;-75
2024/04/04 00:08:19;;;;;;;11.93;4.03;;;;;;;;;;5044063;28;20053;-73
2024/04/04 00:10:48;;;;;;;9.48;3.30;;;;;;;;;;5043729;28;20060;-74
2024/04/04 00:13:17;;;;;;;8.77;3.35;;;;;;;;;;5026909;28;20119;-74
2024/04/04 00:15:45;;;;;;;8.10;3.05;;;;;;;;;;5026681;28;20416;-74
2024/04/04 00:18:15;;;;;;;7.20;3.13;;;;;;;;;;5027506;28;20044;-73
2024/04/04 00:20:43;;;;;;;7.82;3.45;;;;;;;;;;5043744;28;20049;-73
2024/04/04 00:23:12;;;;;;;6.45;3.17;;;;;;;;;;5041613;28;20056;-76
2024/04/04 00:25:42;;;;;;;12.75;3.00;;;;;;;;;;5043535;28;20045;-73
2024/04/04 00:28:11;;;;;;;7.45;3.47;;;;;;;;;;5042298;28;20040;-74
2024/04/04 00:30:41;;;;;;;11.20;3.30;;;;;;;;;;5042992;28;20040;-74
2024/04/04 00:33:11;;;;;;;6.70;3.33;;;;;;;;;;5043407;28;20053;-73
2024/04/04 00:35:39;;;;;;;9.93;3.67;;;;;;;;;;5043230;28;20068;-74
2024/04/04 00:38:08;;;;;;;5.38;3.17;;;;;;;;;;5043341;28;20040;-73
2024/04/04 00:40:37;;;;;;;10.10;3.17;;;;;;;;;;5043344;28;20428;-73
2024/04/04 00:43:06;;;;;;;13.18;3.35;;;;;;;;;;5041802;28;20041;-73
2024/04/04 00:45:35;;;;;;;12.63;3.58;;;;;;;;;;5043065;28;20060;-72
2024/04/04 00:48:05;;;;;;;6.93;3.17;;;;;;;;;;5042682;28;20064;-73
2024/04/04 00:50:33;;;;;;;10.35;3.53;;;;;;;;;;5042281;28;20641;-73
2024/04/04 00:53:04;;;;;;;6.43;2.70;;;;;;;;;;5043558;28;20045;-72
2024/04/04 00:55:32;;;;;;;7.50;3.17;;;;;;;;;;5042736;28;20684;-73
2024/04/04 00:58:01;;;;;;;7.30;3.08;;;;;;;;;;5042551;28;20064;-73
2024/04/04 01:00:30;;;;;;;8.70;2.83;;;;;;;;;;5042624;28;20052;-73
2024/04/04 01:03:01;;;;;;;7.70;3.33;;;;;;;;;;5042223;28;20102;-73
2024/04/04 01:05:30;;;;;;;7.30;2.65;;;;;;;;;;5042055;28;20500;-74
2024/04/04 01:07:58;;;;;;;11.57;2.80;;;;;;;;;;5042326;28;20033;-73
2024/04/04 01:10:27;;;;;;;9.40;3.67;;;;;;;;;;5042768;28;20048;-73
2024/04/04 01:12:56;;;;;;;8.48;3.08;;;;;;;;;;5042079;28;20041;-73
2024/04/04 01:15:25;;;;;;;7.85;3.03;;;;;;;;;;5042155;28;20045;-73
2024/04/04 01:17:53;;;;;;;14.07;2.85;;;;;;;;;;5042322;28;20053;-73
2024/04/04 01:20:21;;;;;;;9.02;3.13;;;;;;;;;;5043214;28;20041;-73
2024/04/04 01:22:50;;;;;;;15.88;3.08;;;;;;;;;;5042662;28;20059;-73
2024/04/04 01:25:18;;;;;;;9.88;3.08;;;;;;;;;;5042268;28;20052;-72
2024/04/04 01:27:50;;;;;;;8.95;3.35;;;;;;;;;;5041609;28;20107;-73
2024/04/04 01:30:19;;;;;;;8.05;2.58;;;;;;;;;;5042335;28;20055;-72
2024/04/04 01:32:47;;;;;;;7.72;2.90;;;;;;;;;;5041948;28;20060;-72
2024/04/04 01:35:15;;;;;;;8.02;3.13;;;;;;;;;;5042179;28;20052;-72
2024/04/04 01:37:46;;;;;;;11.55;3.42;;;;;;;;;;5042149;28;20045;-73
2024/04/04 01:40:15;;;;;;;7.85;3.00;;;;;;;;;;5025602;28;20041;-72
2024/04/04 01:42:44;;;;;;;7.65;2.95;;;;;;;;;;5042426;28;20060;-73
2024/04/04 01:45:12;;;;;;;7.38;3.15;;;;;;;;;;5041579;28;20049;-73
2024/04/04 01:47:40;;;;;;;7.65;2.78;;;;;;;;;;5025208;28;20152;-74
2024/04/04 01:50:10;;;;;;;7.80;3.17;;;;;;;;;;5041752;28;20049;-72
2024/04/04 01:52:39;;;;;;;12.77;3.80;;;;;;;;;;5025034;28;20056;-74
2024/04/04 01:55:07;;;;;;;8.48;3.00;;;;;;;;;;5041356;28;20061;-73
2024/04/04 01:57:39;;;;;;;6.00;3.22;;;;;;;;;;5041058;28;20057;-73
2024/04/04 02:00:08;;;;;;;11.18;3.20;;;;;;;;;;5025834;28;20045;-73
2024/04/04 02:02:40;;;;;;;9.50;3.53;;;;;;;;;;5041165;28;20520;-73
2024/04/04 02:05:09;;;;;;;;;;;;;;;;;;5041455;28;20052;-73
2024/04/04 02:07:37;;;;;;;14.93;3.15;;;;;;;;;;5040953;28;19925;-73
2024/04/04 02:10:05;;;;;;;12.07;3.03;;;;;;;;;;5041716;28;20416;-73
2024/04/04 02:12:33;;;;;;;12.07;3.72;;;;;;;;;;5041635;28;20598;-73
2024/04/04 02:15:03;;;;;;;7.60;2.88;;;;;;;;;;5041737;28;20518;-74
2024/04/04 02:17:32;;;;;;;8.90;3.10;;;;;;;;;;5041260;28;20044;-74
2024/04/04 02:20:00;;;;;;;7.63;3.10;;;;;;;;;;5041385;28;20057;-74
2024/04/04 02:22:29;;;;;;;4.47;2.63;;;;;;;;;;5041903;28;20049;-74
2024/04/04 02:24:57;;;;;;;10.40;3.45;;;;;;;;;;5041020;28;20041;-74
2024/04/04 02:27:26;;;;;;;6.18;2.83;;;;;;;;;;5041322;28;20048;-74
2024/04/04 02:29:55;;;;;;;9.25;3.20;;;;;;;;;;5041427;28;20049;-74
2024/04/04 02:32:23;;;;;;;7.63;3.00;;;;;;;;;;5041171;28;20053;-75
2024/04/04 02:34:52;;;;;;;4.97;2.72;;;;;;;;;;5041039;28;20048;-74
2024/04/04 02:37:20;;;;;;;10.20;3.15;;;;;;;;;;5040612;28;20503;-74
2024/04/04 02:39:48;;;;;;;6.88;3.08;;;;;;;;;;5041382;28;20534;-74
2024/04/04 02:42:16;;;;;;;6.45;3.00;;;;;;;;;;5040549;28;20049;-74
2024/04/04 02:44:47;;;;;;;14.75;3.60;;;;;;;;;;5040345;28;20037;-74
2024/04/04 02:47:15;;;;;;;7.53;3.03;;;;;;;;;;5041020;28;20048;-74
2024/04/04 02:49:43;;;;;;;18.05;4.10;;;;;;;;;;5041068;28;20053;-74
2024/04/04 02:52:11;;;;;;;24.65;4.50;;;;;;;;;;5024160;28;20060;-74
2024/04/04 02:54:40;;;;;;;9.43;3.95;;;;;;;;;;5040827;28;20393;-75
2024/04/04 02:57:09;;;;;;;12.18;4.25;;;;;;;;;;5040537;28;20054;-74
2024/04/04 02:59:38;;;;;;;11.55;4.07;;;;;;;;;;5040682;28;20055;-74
2024/04/04 03:02:06;;;;;;;11.02;4.15;;;;;;;;;;5040493;28;20041;-74
2024/04/04 03:04:39;;;;;;;11.77;3.85;;;;;;;;;;5041833;28;20048;-75
2024/04/04 03:07:07;;;;;;;7.70;3.95;;;;;;;;;;5039927;28;20037;-74
2024/04/04 03:09:36;;;;;;;11.35;3.92;;;;;;;;;;5024188;28;20057;-74
2024/04/04 03:12:05;;;;;;;14.05;3.92;;;;;;;;;;5022892;28;20416;-74
2024/04/04 03:14:34;;;;;;;9.85;3.83;;;;;;;;;;5040245;28;20052;-74
2024/04/04 03:17:02;;;;;;;9.57;3.53;;;;;;;;;;5040069;28;20045;-74
2024/04/04 03:19:30;;;;;;;10.02;4.00;;;;;;;;;;5040276;28;20056;-72
2024/04/04 03:21:59;;;;;;;9.52;3.63;;;;;;;;;;5040709;28;20040;-74
2024/04/04 03:24:28;;;;;;;9.95;3.63;;;;;;;;;;5039790;28;20045;-75
2024/04/04 03:26:57;;;;;;;7.78;3.90;;;;;;;;;;5040337;28;20049;-74
2024/04/04 03:29:25;;;;;;;6.68;3.92;;;;;;;;;;5040145;28;20045;-75
2024/04/04 03:31:53;;;;;;;11.52;3.85;;;;;;;;;;5040684;28;20037;-75
2024/04/04 03:43:46;;;;;;;8.70;3.25;;;;;;;;;;5042552;28;20579;-74
2024/04/04 03:47:14;;;;;;;8.07;4.00;;;;;;;;;;5042095;28;20415;-74
2024/04/04 03:49:43;;;;;;;7.75;3.47;;;;;;;;;;5040106;28;20048;-74
2024/04/04 03:52:12;;;;;;;9.13;4.28;;;;;;;;;;5039969;28;20045;-73
2024/04/04 03:54:41;;;;;;;8.85;4.03;;;;;;;;;;5039879;28;20681;-73
2024/04/04 03:57:10;;;;;;;5.00;2.88;;;;;;;;;;5040037;28;20063;-73
2024/04/04 03:59:39;;;;;;;11.82;3.85;;;;;;;;;;5040522;28;20037;-73
2024/04/04 04:02:07;;;;;;;;;;;;;;;;;;5040815;28;20053;-73
2024/04/04 04:04:35;;;;;;;;;;;;;;;;;;5024779;28;19928;-73
2024/04/04 04:07:04;;;;;;;10.00;3.05;;;;;;;;;;5040457;28;19920;-73
2024/04/04 04:09:33;;;;;;;7.32;3.20;;;;;;;;;;5039906;28;20052;-73
2024/04/04 04:12:01;;;;;;;8.20;2.90;;;;;;;;;;5039830;28;20049;-73
2024/04/04 04:14:29;;;;;;;10.30;3.38;;;;;;;;;;5039643;28;20045;-73
2024/04/04 04:16:58;;;;;;;4.85;2.95;;;;;;;;;;5039775;28;20045;-72
2024/04/04 04:19:28;;;;;;;8.10;3.63;;;;;;;;;;5041847;28;20443;-73
2024/04/04 04:21:56;;;;;;;10.65;2.97;;;;;;;;;;5043553;28;20045;-73
2024/04/04 04:24:25;;;;;;;9.02;3.65;;;;;;;;;;5042874;28;20049;-73
2024/04/04 04:26:53;;;;;;;11.15;4.25;;;;;;;;;;5027187;28;20045;-73
2024/04/04 04:29:22;;;;;;;8.85;3.10;;;;;;;;;;5043352;28;20052;-74
2024/04/04 04:31:54;;;;;;;8.55;3.47;;;;;;;;;;5043703;28;20045;-73
2024/04/04 04:34:23;;;;;;;7.22;3.20;;;;;;;;;;5044184;28;20412;-73
2024/04/04 04:36:56;;;;;;;8.00;3.35;;;;;;;;;;5043371;28;20037;-73
2024/04/04 04:39:26;;;;;;;9.75;3.15;;;;;;;;;;5043241;28;20056;-73
2024/04/04 04:41:54;;;;;;;8.10;3.20;;;;;;;;;;5043755;28;20045;-73
2024/04/04 04:44:24;;;;;;;10.15;3.40;;;;;;;;;;5026846;28;20582;-73
2024/04/04 04:46:53;;;;;;;12.00;3.28;;;;;;;;;;5043028;28;20045;-73
2024/04/04 04:49:22;;;;;;;10.88;3.50;;;;;;;;;;5042642;28;20538;-73
2024/04/04 04:51:50;;;;;;;8.07;3.15;;;;;;;;;;5042777;28;20500;-73
2024/04/04 04:54:19;;;;;;;8.63;3.83;;;;;;;;;;5042742;28;20045;-74
2024/04/04 04:56:47;;;;;;;6.45;3.90;;;;;;;;;;5042914;28;20044;-73
2024/04/04 04:59:16;;;;;;;14.55;4.00;;;;;;;;;;5026970;28;20520;-72
2024/04/04 05:01:44;;;;;;;13.18;4.00;;;;;;;;;;5042713;28;20037;-74
2024/04/04 05:04:13;;;;;;;7.85;3.58;;;;;;;;;;5042623;28;20041;-73
2024/04/04 05:06:46;;;;;;;10.77;4.20;;;;;;;;;;5042329;28;20055;-73
2024/04/04 05:09:15;;;;;;;9.43;3.42;;;;;;;;;;5042972;28;20045;-75
2024/04/04 05:11:44;;;;;;;15.15;3.72;;;;;;;;;;5042408;28;20052;-73
2024/04/04 05:14:12;;;;;;;8.88;3.60;;;;;;;;;;5042317;28;20549;-73
2024/04/04 05:16:45;;;;;;;10.05;3.28;;;;;;;;;;5042288;28;20049;-73
2024/04/04 05:19:14;;;;;;;8.00;3.15;;;;;;;;;;5042520;28;20508;-73
2024/04/04 05:21:43;;;;;;;8.73;3.13;;;;;;;;;;5042306;28;20048;-74
2024/04/04 05:24:11;;;;;;;15.65;3.70;;;;;;;;;;5025395;28;20045;-73
2024/04/04 05:26:39;;;;;;;7.90;3.40;;;;;;;;;;5043298;28;20052;-74
2024/04/04 05:29:07;;;;;;;9.73;2.80;;;;;;;;;;5042149;28;20484;-74
2024/04/04 05:31:35;;;;;;;7.18;2.97;;;;;;;;;;5041633;28;20044;-73
2024/04/04 05:34:04;;;;;;;9.68;3.33;;;;;;;;;;5041887;28;20053;-73
2024/04/04 05:36:33;;;;;;;14.02;3.78;;;;;;;;;;5025231;28;20409;-73
2024/04/04 05:39:01;;;;;;;;;;;;;;;;;;5042457;28;20064;-73
2024/04/04 05:41:29;;;;;;;14.68;4.60;;;;;;;;;;5042502;28;19924;-73
2024/04/04 05:43:57;;;;;;;19.33;4.68;;;;;;;;;;5041664;28;20816;-72
2024/04/04 05:46:25;;;;;;;13.32;4.97;;;;;;;;;;5041129;28;20059;-73
2024/04/04 05:48:56;;;;;;;10.38;4.38;;;;;;;;;;5041430;28;20047;-72
2024/04/04 05:51:25;;;;;;;12.63;4.53;;;;;;;;;;5041574;28;20048;-73
2024/04/04 05:53:54;;;;;;;11.18;4.38;;;;;;;;;;5041850;28;20432;-73
2024/04/04 05:56:23;;;;;;;14.68;5.30;;;;;;;;;;5041304;28;20539;-73
2024/04/04 05:58:51;;;;;;;11.70;4.40;;;;;;;;;;5041266;28;20431;-73
2024/04/04 06:01:20;;;;;;;14.70;4.45;;;;;;;;;;5041827;28;20056;-73
2024/04/04 06:03:49;;;;;;;14.52;4.22;;;;;;;;;;5041700;28;20037;-73
2024/04/04 06:06:17;;;;;;;13.10;3.85;;;;;;;;;;5040292;28;20041;-73
2024/04/04 06:08:45;;;;;;;14.13;4.40;;;;;;;;;;5041037;28;20052;-73
2024/04/04 06:11:14;;;;;;;11.80;3.92;;;;;;;;;;5041521;28;20049;-74
2024/04/04 06:13:43;;;;;;;15.07;4.15;;;;;;;;;;5042052;28;20420;-73
2024/04/04 06:16:11;;;;;;;;;;;;;;;;;;5042746;28;20040;-73
2024/04/04 06:18:40;;;;;;;7.45;3.65;;;;;;;;;;5041612;28;19924;-73
2024/04/04 06:21:08;;;;;;;13.00;3.95;;;;;;;;;;5041366;28;20056;-73
2024/04/04 06:23:37;;;;;;;13.38;4.35;;;;;;;;;;5040789;28;20147;-73
2024/04/04 06:26:06;;;;;;;11.30;3.83;;;;;;;;;;5041014;28;20419;-73
2024/04/04 06:28:34;;;;;;;17.13;4.15;;;;;;;;;;5040843;28;20040;-73
2024/04/04 06:31:03;;;;;;;11.77;3.97;;;;;;;;;;5041118;28;20053;-73
2024/04/04 06:33:31;;;;;;;15.77;3.90;;;;;;;;;;5041117;28;20530;-73
2024/04/04 06:36:01;;;;;;;10.02;4.10;;;;;;;;;;5008028;28;20053;-73
2024/04/04 06:38:29;;;;;;;10.50;3.55;;;;;;;;;;5040912;28;20037;-73
2024/04/04 06:40:57;;;;;;;12.13;4.32;;;;;;;;;;5040578;28;20041;-73
2024/04/04 06:43:25;;;;;;;8.95;3.72;;;;;;;;;;5040926;28;20572;-73
2024/04/04 06:45:55;;;;;;;9.65;3.97;;;;;;;;;;5041071;28;20056;-74
2024/04/04 06:48:23;;;;;;;9.38;4.10;;;;;;;;;;5041318;28;20053;-73
2024/04/04 06:50:51;;;;;;;11.82;4.20;;;;;;;;;;5041007;28;20044;-73
2024/04/04 06:53:19;;;;;;;11.57;4.47;;;;;;;;;;5040848;28;20053;-73
2024/04/04 06:55:48;;;;;;;10.52;4.57;;;;;;;;;;5040662;28;20057;-74
2024/04/04 06:58:17;;;;;;;10.60;4.20;;;;;;;;;;5042480;28;20048;-73
2024/04/04 07:00:58;;;;;;;14.90;4.55;;;;;;;;;;5041803;28;20423;-73
2024/04/04 07:03:27;;;;;;;11.63;4.43;;;;;;;;;;5041713;28;20060;-73
2024/04/04 07:05:55;;;;;;;11.63;4.30;;;;;;;;;;5043519;28;20501;-73
2024/04/04 07:08:25;;;;;;;14.40;4.93;;;;;;;;;;5024676;28;20115;-73
2024/04/04 07:11:04;;;;;;;10.95;4.70;;;;;;;;;;5040633;28;20519;-74
2024/04/04 07:13:33;;;;;;;14.65;5.28;;;;;;;;;;5040149;28;20074;-73
2024/04/04 07:16:11;;;;;;;9.68;4.72;;;;;;;;;;5024875;28;20056;-73
2024/04/04 07:18:40;;;;;;;13.10;5.00;;;;;;;;;;5040871;28;20051;-73
2024/04/04 07:21:09;;;;;;;13.63;5.00;;;;;;;;;;5040458;28;20389;-74
2024/04/04 07:23:37;;;;;;;15.63;5.22;;;;;;;;;;5040415;28;20049;-73
2024/04/04 07:26:05;;;;;;;11.60;4.65;;;;;;;;;;5040681;28;20060;-73
2024/04/04 07:28:34;;;;;;;12.88;5.65;;;;;;;;;;5040239;28;20041;-73
2024/04/04 07:31:03;;;;;;;14.57;5.30;;;;;;;;;;5040247;28;20049;-73
2024/04/04 07:33:31;;;;;;;19.10;5.07;;;;;;;;;;5040059;28;20063;-73
2024/04/04 07:36:00;;;;;;;11.70;4.63;;;;;;;;;;5040230;28;20045;-72
2024/04/04 07:38:29;;;;;;;11.02;4.95;;;;;;;;;;5040051;28;20045;-72
2024/04/04 07:41:03;;;;;;;17.10;4.85;;;;;;;;;;5040282;28;20052;-73
2024/04/04 07:43:32;;;;;;;11.25;4.60;;;;;;;;;;5025823;28;20682;-73
2024/04/04 07:46:01;;;;;;;10.65;4.43;;;;;;;;;;5041885;28;20067;-72
2024/04/04 07:48:30;;;;;;;12.40;5.07;;;;;;;;;;5040852;28;20041;-72
2024/04/04 07:50:58;;;;;;;10.43;4.80;;;;;;;;;;5039736;28;20056;-73
2024/04/04 07:53:27;;;;;;;12.93;5.53;;;;;;;;;;5041813;28;20539;-73
2024/04/04 07:55:55;;;;;;;18.10;5.70;;;;;;;;;;5043975;28;20049;-73
2024/04/04 07:58:24;;;;;;;15.57;5.20;;;;;;;;;;5044123;28;20044;-73
2024/04/04 08:00:56;;;;;;;19.02;5.47;;;;;;;;;;5043973;28;20145;-74
2024/04/04 08:03:27;;;;;;;14.00;5.18;;;;;;;;;;5028278;28;20040;-73
2024/04/04 08:05:56;;;;;;;13.05;6.20;;;;;;;;;;5043240;28;20052;-73
2024/04/04 08:08:25;;;;;;;17.75;6.28;;;;;;;;;;5043795;28;20052;-73
2024/04/04 08:10:53;;;;;;;16.33;6.28;;;;;;;;;;5044304;28;20045;-73
2024/04/04 08:13:22;;;;;;;11.73;5.30;;;;;;;;;;5043711;28;20134;-73
2024/04/04 08:15:51;;;;;;;15.60;6.00;;;;;;;;;;5043759;28;20059;-73
2024/04/04 08:18:19;;;;;;;15.80;5.53;;;;;;;;;;5043922;28;20492;-73
2024/04/04 08:20:49;;;;;;;;;;;;;;;;;;5044319;28;20064;-73
2024/04/04 08:23:17;;;;;;;16.13;6.10;;;;;;;;;;5043635;28;19924;-74
2024/04/04 08:25:56;;;;;;;20.83;6.45;;;;;;;;;;5043226;28;20037;-73
2024/04/04 08:28:26;;;;;;;16.02;5.95;;;;;;;;;;5027012;28;20040;-74
2024/04/04 08:31:02;;;;;;;23.70;6.10;;;;;;;;;;5043333;28;20053;-73
2024/04/04 08:33:31;;;;;;;16.20;5.78;;;;;;;;;;5043153;28;20041;-73
2024/04/04 08:36:01;;;;;;;14.70;5.65;;;;;;;;;;5043321;28;20049;-73
2024/04/04 08:38:29;;;;;;;15.90;5.95;;;;;;;;;;5043238;28;20051;-74
2024/04/04 08:41:07;;;;;;;16.33;6.22;;;;;;;;;;5042963;28;20044;-74
2024/04/04 08:43:37;;;;;;;20.23;5.30;;;;;;;;;;5026714;28;20040;-73
2024/04/04 08:46:08;;;;;;;13.82;5.38;;;;;;;;;;5042938;28;20045;-74
2024/04/04 08:48:37;;;;;;;18.65;6.05;;;;;;;;;;5043198;28;20041;-74
2024/04/04 08:51:07;;;;;;;10.02;5.70;;;;;;;;;;5042971;28;20045;-73
2024/04/04 08:53:37;;;;;;;14.73;6.00;;;;;;;;;;5042637;28;20049;-74
2024/04/04 08:56:06;;;;;;;17.08;6.20;;;;;;;;;;5042718;28;20053;-74
2024/04/04 08:58:34;;;;;;;10.48;5.25;;;;;;;;;;5026193;28;20056;-74
2024/04/04 09:01:04;;;;;;;17.70;6.13;;;;;;;;;;5042637;28;20044;-74
2024/04/04 09:03:32;;;;;;;13.30;5.45;;;;;;;;;;5043691;28;20500;-73
2024/04/04 09:06:01;;;;;;;10.75;4.75;;;;;;;;;;5042039;28;20056;-73
2024/04/04 09:08:31;;;;;;;11.57;5.05;;;;;;;;;;5026589;28;20088;-74
2024/04/04 09:11:03;;;;;;;13.65;5.00;;;;;;;;;;5042623;28;20051;-73
2024/04/04 09:13:32;;;;;;;16.20;6.10;;;;;;;;;;5042122;28;20828;-75
2024/04/04 09:16:01;;;;;;;14.10;5.78;;;;;;;;;;5042303;28;20508;-74
2024/04/04 09:18:30;;;;;;;14.75;6.43;;;;;;;;;;5042520;28;20052;-74
2024/04/04 09:21:00;;;;;;;14.07;4.88;;;;;;;;;;5042325;28;20036;-73
2024/04/04 09:23:33;;;;;;;14.73;5.22;;;;;;;;;;5041977;28;20064;-74
2024/04/04 09:26:01;;;;;;;16.38;6.35;;;;;;;;;;5042467;28;20036;-73
2024/04/04 09:28:29;;;;;;;12.50;5.97;;;;;;;;;;5042058;28;20037;-74
2024/04/04 09:31:01;;;;;;;15.75;5.45;;;;;;;;;;5042792;28;20041;-74
2024/04/04 09:33:30;;;;;;;11.88;5.88;;;;;;;;;;5042445;28;20055;-74
2024/04/04 09:36:01;;;;;;;14.45;5.22;;;;;;;;;;5042165;28;20045;-74
2024/04/04 09:38:31;;;;;;;15.48;6.32;;;;;;;;;;5025974;28;20052;-76
2024/04/04 09:41:03;;;;;;;13.23;5.78;;;;;;;;;;5041848;28;20045;-74
2024/04/04 09:43:32;;;;;;;18.50;6.13;;;;;;;;;;5041839;28;20045;-74
2024/04/04 09:46:01;;;;;;;14.52;5.90;;;;;;;;;;5042358;28;20044;-75
2024/04/04 09:48:30;;;;;;;14.02;6.40;;;;;;;;;;5042109;28;20048;-74
2024/04/04 09:51:00;;;;;;;18.40;6.75;;;;;;;;;;5042028;28;20045;-75
2024/04/04 09:53:28;;;;;;;21.50;6.30;;;;;;;;;;5042172;28;20045;-75
2024/04/04 09:55:58;;;;;;;15.55;5.65;;;;;;;;;;5042023;28;20067;-75
2024/04/04 09:58:27;;;;;;;14.98;6.03;;;;;;;;;;5041703;28;20060;-74
2024/04/04 10:00:55;;;;;;;19.05;6.15;;;;;;;;;;5041629;28;20416;-74
2024/04/04 10:03:23;;;;;;;9.98;4.85;;;;;;;;;;5041736;28;20056;-73
2024/04/04 10:05:55;;;;;;;12.40;5.20;;;;;;;;;;5041273;28;20052;-73
2024/04/04 10:08:30;;;;;;;21.90;6.32;;;;;;;;;;5041651;28;20041;-76
2024/04/04 10:11:05;;;;;;;;;;;;;;;;;;5042398;28;20048;-76
2024/04/04 10:13:34;;;;;;;14.18;5.60;;;;;;;;;;5041268;28;19932;-75
2024/04/04 10:16:03;;;;;;;13.65;5.15;;;;;;;;;;5041456;28;20583;-75
2024/04/04 10:18:34;;;;;;;26.58;6.65;;;;;;;;;;5042011;28;20045;-77
2024/04/04 10:21:10;;;;;;;18.73;6.63;;;;;;;;;;5041103;28;20804;-75
2024/04/04 10:23:39;;;;;;;15.93;6.00;;;;;;;;;;5041490;28;20060;-74
2024/04/04 10:26:09;;;;;;;15.10;5.80;;;;;;;;;;5041489;28;20373;-77
2024/04/04 10:28:38;;;;;;;15.07;6.03;;;;;;;;;;5041276;28;20040;-78
2024/04/04 10:31:09;;;;;;;17.63;6.03;;;;;;;;;;5024879;28;20057;-79
2024/04/04 10:33:38;;;;;;;17.92;6.25;;;;;;;;;;5039825;28;20056;-75
2024/04/04 10:36:07;;;;;;;21.75;5.88;;;;;;;;;;5008138;28;20496;-75
2024/04/04 10:38:35;;;;;;;17.73;5.78;;;;;;;;;;5024374;28;20068;-77
2024/04/04 10:41:04;;;;;;;21.92;7.38;;;;;;;;;;5040857;28;20048;-75
2024/04/04 10:43:40;;;;;;;;;;;;;;;;;;5041574;28;20056;-75
2024/04/04 10:46:09;;;;;;;20.55;6.90;;;;;;;;;;5040729;28;19924;-75
2024/04/04 10:48:37;;;;;;;12.43;5.47;;;;;;;;;;5040960;28;20041;-73
2024/04/04 10:51:06;;;;;;;16.35;6.70;;;;;;;;;;5040663;28;20067;-77
2024/04/04 10:53:34;;;;;;;21.65;6.03;;;;;;;;;;5040318;28;20514;-74
2024/04/04 10:56:03;;;;;;;15.50;5.85;;;;;;;;;;5040581;28;20064;-74
2024/04/04 10:58:35;;;;;;;15.63;5.78;;;;;;;;;;5041003;28;20041;-77
2024/04/04 11:01:05;;;;;;;17.80;5.38;;;;;;;;;;5040572;28;20049;-76
2024/04/04 11:03:33;;;;;;;;;;;;;;;;;;5025022;28;20064;-75
2024/04/04 11:06:03;;;;;;;16.23;5.50;;;;;;;;;;5024804;28;19924;-72
2024/04/04 11:08:32;;;;;;;19.38;5.80;;;;;;;;;;5041330;28;20056;-74
2024/04/04 11:11:01;;;;;;;16.38;6.25;;;;;;;;;;5040972;28;20045;-74
2024/04/04 11:13:29;;;;;;;18.08;6.85;;;;;;;;;;5041727;28;20056;-76
2024/04/04 11:15:58;;;;;;;18.88;6.00;;;;;;;;;;5039909;28;20064;-76
2024/04/04 11:18:28;;;;;;;22.30;6.97;;;;;;;;;;5040228;28;20064;-76
2024/04/04 11:20:57;;;;;;;18.15;6.13;;;;;;;;;;5024073;28;20052;-73
2024/04/04 11:23:26;;;;;;;11.98;6.13;;;;;;;;;;5040337;28;20512;-74
2024/04/04 11:25:56;;;;;;;15.35;6.68;;;;;;;;;;5039810;28;20781;-72
2024/04/04 11:28:24;;;;;;;13.95;5.78;;;;;;;;;;5042748;28;20057;-75
2024/04/04 11:30:54;;;;;;;14.63;6.05;;;;;;;;;;5044528;28;20045;-74
2024/04/04 11:33:23;;;;;;;17.52;5.78;;;;;;;;;;5044338;28;20411;-73
2024/04/04 11:35:53;;;;;;;15.00;6.10;;;;;;;;;;5044025;28;20055;-73
2024/04/04 11:38:23;;;;;;;16.67;6.55;;;;;;;;;;5044806;28;20059;-73
2024/04/04 11:40:51;;;;;;;21.25;7.32;;;;;;;;;;5044198;28;20040;-73
2024/04/04 11:43:23;;;;;;;16.80;6.40;;;;;;;;;;5043828;28;20045;-74
2024/04/04 11:45:52;;;;;;;21.50;6.88;;;;;;;;;;5028184;28;20045;-74
2024/04/04 11:48:20;;;;;;;13.80;6.32;;;;;;;;;;5043762;28;20056;-74
2024/04/04 11:50:49;;;;;;;16.67;6.47;;;;;;;;;;5043462;28;20040;-74
2024/04/04 11:53:18;;;;;;;22.48;6.28;;;;;;;;;;5043839;28;20045;-74
2024/04/04 11:55:47;;;;;;;11.48;6.10;;;;;;;;;;5043766;28;20057;-74
2024/04/04 11:58:15;;;;;;;13.60;5.72;;;;;;;;;;5027280;28;20048;-73
2024/04/04 12:00:44;;;;;;;17.30;6.70;;;;;;;;;;5043878;28;20049;-73
2024/04/04 12:03:12;;;;;;;18.67;6.85;;;;;;;;;;5027220;28;20425;-76
2024/04/04 12:05:42;;;;;;;22.10;6.10;;;;;;;;;;5027444;28;20051;-75
2024/04/04 12:08:11;;;;;;;14.63;6.28;;;;;;;;;;5044406;28;20044;-76
2024/04/04 12:10:43;;;;;;;13.68;5.65;;;;;;;;;;5043558;28;20056;-75
2024/04/04 12:13:12;;;;;;;13.18;6.05;;;;;;;;;;5043465;28;20499;-74
2024/04/04 12:15:49;;;;;;;12.40;5.95;;;;;;;;;;5043443;28;20049;-75
2024/04/04 12:21:05;;;;;;;15.68;5.90;;;;;;;;;;5043261;28;20045;-75
2024/04/04 12:23:34;;;;;;;12.65;5.80;;;;;;;;;;5043103;28;20390;-75
2024/04/04 12:26:02;;;;;;;21.15;6.32;;;;;;;;;;5043146;28;20040;-76
2024/04/04 12:28:31;;;;;;;14.00;5.13;;;;;;;;;;5026941;28;20416;-74
2024/04/04 12:31:00;;;;;;;14.02;5.95;;;;;;;;;;5043004;28;20049;-77
2024/04/04 12:33:29;;;;;;;11.00;5.38;;;;;;;;;;5044366;28;20044;-73
2024/04/04 12:35:57;;;;;;;;;;;;;;;;;;5044314;28;20052;-74
2024/04/04 12:38:25;;;;;;;;;;;;;;;;;;5043245;28;20000;-74
2024/04/04 12:40:59;;;;;;;14.10;6.00;;;;;;;;;;5041909;28;19936;-73
2024/04/04 12:43:28;;;;;;;15.98;5.38;;;;;;;;;;5043387;28;21100;-73
2024/04/04 12:46:04;;;;;;;17.10;5.68;;;;;;;;;;5042676;28;20048;-73
2024/04/04 12:48:34;;;;;;;20.58;9.80;;;;;;;;;;5043120;28;20530;-74
2024/04/04 12:51:02;;;;;;;15.18;6.82;;;;;;;;;;5043246;28;20044;-74
2024/04/04 12:53:31;;;;;;;18.25;6.65;;;;;;;;;;5042555;28;20072;-73
2024/04/04 12:56:00;;;;;;;28.02;7.20;;;;;;;;;;5042124;28;20060;-73
2024/04/04 12:58:29;;;;;;;16.33;5.97;;;;;;;;;;5026261;28;20056;-73
2024/04/04 13:01:00;;;;;;;13.48;6.00;;;;;;;;;;5043318;28;20041;-75
2024/04/04 13:03:29;;;;;;;19.73;7.90;;;;;;;;;;5026691;28;20060;-75
2024/04/04 13:05:58;;;;;;;24.92;8.38;;;;;;;;;;5026624;28;20056;-75
2024/04/04 13:08:27;;;;;;;17.45;7.57;;;;;;;;;;5043543;28;20041;-74
2024/04/04 13:10:55;;;;;;;14.25;6.32;;;;;;;;;;5044733;28;20045;-75
2024/04/04 13:13:24;;;;;;;19.13;6.75;;;;;;;;;;5026732;28;20060;-73
2024/04/04 13:15:52;;;;;;;16.10;6.13;;;;;;;;;;5044646;28;20052;-73
2024/04/04 13:18:21;;;;;;;11.20;5.80;;;;;;;;;;5042154;28;20095;-71
2024/04/04 13:20:49;;;;;;;15.57;6.25;;;;;;;;;;5043793;28;20740;-74
2024/04/04 13:23:18;;;;;;;14.30;6.20;;;;;;;;;;5026434;28;20504;-74
2024/04/04 13:25:47;;;;;;;11.35;5.97;;;;;;;;;;5042631;28;20503;-74
2024/04/04 13:28:17;;;;;;;12.27;5.70;;;;;;;;;;5042428;28;20063;-75
2024/04/04 13:30:45;;;;;;;11.52;6.32;;;;;;;;;;5041730;28;20124;-74
2024/04/04 13:33:15;;;;;;;13.88;5.90;;;;;;;;;;5025412;28;20071;-76
2024/04/04 13:35:43;;;;;;;14.80;5.90;;;;;;;;;;5041665;28;20044;-75
2024/04/04 13:38:12;;;;;;;12.05;5.57;;;;;;;;;;5042077;28;20048;-73
2024/04/04 13:40:41;;;;;;;12.02;5.57;;;;;;;;;;5025534;28;20056;-73
2024/04/04 13:43:09;;;;;;;12.18;6.00;;;;;;;;;;5041157;28;20056;-74
2024/04/04 13:45:37;;;;;;;10.35;6.22;;;;;;;;;;5025022;28;20049;-75
2024/04/04 13:48:07;;;;;;;9.32;5.30;;;;;;;;;;5025867;28;20045;-75
2024/04/04 13:50:35;;;;;;;11.65;5.53;;;;;;;;;;5025046;28;20511;-73
2024/04/04 13:53:04;;;;;;;10.30;5.43;;;;;;;;;;5042258;28;20049;-75
2024/04/04 13:55:33;;;;;;;12.10;5.55;;;;;;;;;;5041404;28;20064;-75
2024/04/04 13:58:03;;;;;;;8.80;4.82;;;;;;;;;;5042702;28;20060;-75
2024/04/04 14:00:33;;;;;;;7.93;5.05;;;;;;;;;;5043258;28;20041;-76
2024/04/04 14:03:01;;;;;;;;;;;;;;;;;;5043066;28;20404;-74
2024/04/04 14:05:29;;;;;;;10.57;5.60;;;;;;;;;;5042241;28;19925;-74
2024/04/04 14:07:58;;;;;;;8.48;5.20;;;;;;;;;;5041313;28;20056;-74
2024/04/04 14:10:27;;;;;;;14.32;6.07;;;;;;;;;;5041336;28;20033;-73
2024/04/04 14:12:57;;;;;;;11.23;4.90;;;;;;;;;;5041281;28;20424;-74
2024/04/04 14:15:25;;;;;;;14.13;6.03;;;;;;;;;;5041395;28;20051;-75
2024/04/04 14:17:53;;;;;;;8.07;5.22;;;;;;;;;;5041394;28;20393;-73
2024/04/04 14:20:22;;;;;;;13.15;6.03;;;;;;;;;;5041752;28;20095;-75
2024/04/04 14:22:51;;;;;;;18.50;5.78;;;;;;;;;;5024487;28;20060;-75
2024/04/04 14:25:20;;;;;;;13.82;6.50;;;;;;;;;;5024890;28;20049;-75
2024/04/04 14:27:49;;;;;;;14.70;6.50;;;;;;;;;;5041746;28;20049;-76
2024/04/04 14:30:17;;;;;;;23.08;7.03;;;;;;;;;;5040847;28;20420;-75
2024/04/04 14:32:46;;;;;;;15.18;6.80;;;;;;;;;;5040675;28;20064;-75
2024/04/04 14:35:15;;;;;;;14.82;7.47;;;;;;;;;;5040641;28;20080;-76
2024/04/04 14:37:43;;;;;;;14.18;7.22;;;;;;;;;;5024696;28;20045;-75
2024/04/04 14:40:12;;;;;;;17.80;7.43;;;;;;;;;;5040553;28;20423;-75
2024/04/04 14:42:40;;;;;;;12.55;6.65;;;;;;;;;;5025160;28;20638;-74
2024/04/04 14:45:11;;;;;;;17.08;7.47;;;;;;;;;;5041585;28;20060;-76
2024/04/04 14:47:41;;;;;;;16.40;6.93;;;;;;;;;;5008986;28;20057;-76
2024/04/04 14:50:09;;;;;;;11.93;7.00;;;;;;;;;;5040482;28;20048;-76
2024/04/04 14:52:37;;;;;;;12.55;6.53;;;;;;;;;;5040255;28;20503;-74
2024/04/04 14:55:06;;;;;;;14.90;6.60;;;;;;;;;;5040122;28;20064;-74
2024/04/04 14:57:36;;;;;;;15.98;6.72;;;;;;;;;;5040251;28;20500;-75
2024/04/04 15:00:05;;;;;;;15.00;6.78;;;;;;;;;;5040819;28;20049;-74
2024/04/04 15:02:35;;;;;;;14.55;6.85;;;;;;;;;;5024169;28;20439;-76